ADDS METAR Data INFO
IDs: Format: Raw Decoded Include TAF

Data at: 1132 UTC 29 May 2017

KBPI 291053Z AUTO 33007KT 10SM CLR 01/M01 A3034 RMK AO2 SLP219 T00111011
KBPI 290953Z AUTO 30005KT 10SM CLR 02/M01 A3034 RMK AO2 SLP212 T00171011
KBPI 290853Z AUTO 27005KT 10SM CLR 03/M01 A3033 RMK AO2 SLP211 T00331006 51004
KBPI 290753Z AUTO 30005KT 10SM CLR 02/M01 A3033 RMK AO2 SLP214 T00221011
KBPI 290653Z AUTO 25003KT 10SM CLR 05/M01 A3033 RMK AO2 SLP211 T00501006 401941017
KBPI 290553Z AUTO 36007KT 10SM CLR 06/M01 A3032 RMK AO2 SLP209 60000 T00561006 10189 20044 51011
KBPI 290453Z AUTO 35010KT 10SM CLR 07/M01 A3031 RMK AO2 SLP203 T00671006
KBPI 290353Z AUTO 34010KT 10SM CLR 07/00 A3030 RMK AO2 SLP205 T00670000
KBPI 290253Z AUTO 36010KT 10SM CLR 10/00 A3028 RMK AO2 SLP197 60000 T01000000 55002
KBPI 290153Z AUTO 02007KT 10SM FEW095 17/M02 A3028 RMK AO2 RAB00E13 SLP185 P0000 T01721022
KBPI 290053Z AUTO 33003KT 10SM SCT090 OVC110 17/M02 A3028 RMK AO2 SLP200 T01671017
KBPI 282353Z AUTO 00000KT 10SM OVC100 17/M04 A3029 RMK AO2 SLP209 T01721039 10194 20133 56012
KBPI 282253Z AUTO 00000KT 10SM CLR 18/M04 A3030 RMK AO2 SLP210 T01781044
KBPI 282153Z AUTO VRB03KT 10SM CLR 19/M03 A3031 RMK AO2 SLP212 T01891033
KBPI 282053Z AUTO 02003KT 10SM CLR 18/M03 A3033 RMK AO2 SLP212 T01781033 58011
KBPI 281953Z AUTO 10009KT 070V130 10SM SCT080 17/M03 A3035 RMK AO2 SLP219 T01721028
KBPI 281853Z AUTO 30005KT 10SM CLR 16/M03 A3036 RMK AO2 SLP225 T01611028
KBPI 281753Z AUTO 36005KT 10SM BKN065 14/M02 A3037 RMK AO2 SLP232 T01391022 10156 21017 57005
KBPI 281653Z AUTO 00000KT 10SM CLR 14/M02 A3037 RMK AO2 SLP233 T01391017
KBPI 281553Z AUTO VRB06KT 10SM CLR 12/01 A3038 RMK AO2 SLP240 T01220006
KBPI 281453Z AUTO 00000KT 10SM CLR 09/01 A3039 RMK AO2 SLP242 T00890006 51006
KBPI 281353Z AUTO 00000KT 10SM CLR 06/00 A3039 RMK AO2 SLP245 T00560000
KBPI 281253Z AUTO 00000KT 10SM CLR 01/M01 A3038 RMK AO2 SLP242 T00111011
KBPI 281153Z AUTO 07005KT 10SM CLR M02/M03 A3037 RMK AO2 SLP241 T10171033 10039 21017 53002
KBPI 281053Z AUTO 00000KT 10SM CLR M01/M03 A3036 RMK AO2 SLP237 T10111028
KBPI 280953Z AUTO 00000KT 10SM CLR M01/M03 A3036 RMK AO2 SLP244 T10111033
KBPI 280853Z AUTO 00000KT 10SM CLR 02/M01 A3036 RMK AO2 SLP231 T00221011 51005
KBPI 280753Z AUTO 29004KT 10SM CLR 02/M01 A3035 RMK AO2 SLP233 T00221011
KBPI 280653Z AUTO 30003KT 10SM CLR 02/M01 A3035 RMK AO2 SLP231 T00221011 401611017
KBPI 280553Z AUTO 34011KT 10SM CLR 03/M01 A3034 RMK AO2 SLP228 T00331011 10156 20033 51008
KBPI 280453Z AUTO 34011KT 10SM CLR 04/M01 A3034 RMK AO2 SLP227 T00391011
KBPI 280353Z AUTO 34008KT 10SM CLR 04/M01 A3033 RMK AO2 SLP224 T00441011
KBPI 280253Z AUTO 35011KT 10SM CLR 07/M01 A3031 RMK AO2 SLP218 T00721006 51008
KBPI 280153Z AUTO 36009KT 10SM CLR 10/M02 A3031 RMK AO2 SLP216 T01001017
KBPI 280053Z AUTO 34014KT 10SM OVC075 14/M03 A3029 RMK AO2 PK WND 36026/0001 SLP207 T01391033
KBPI 272353Z AUTO 34014KT 10SM FEW070 BKN085 16/M03 A3028 RMK AO2 SLP207 T01561028 10161 20117 53006


Page loaded:  11:32 UTC  |   04:32 AM Pacific  |   05:32 AM Mountain  |   06:32 AM Central  |   07:32 AM Eastern

 

ADVISORIES

FORECASTS

FORECASTS

OBSERVATIONS

USER TOOLS

ABOUT US